createdAt,value
2023-02-06T00:00:59.108Z,14.00
2023-02-06T00:03:26.861Z,13.68
2023-02-06T00:05:56.149Z,14.57
2023-02-06T00:08:25.847Z,13.35
2023-02-06T00:10:56.529Z,12.20
2023-02-06T00:13:24.287Z,12.50
2023-02-06T00:15:52.006Z,12.85
2023-02-06T00:18:19.687Z,12.43
2023-02-06T00:20:50.602Z,12.38
2023-02-06T00:23:19.759Z,13.43
2023-02-06T00:25:47.587Z,13.90
2023-02-06T00:28:16.805Z,13.13
2023-02-06T00:30:47.777Z,12.93
2023-02-06T00:33:23.815Z,13.73
2023-02-06T00:35:51.559Z,14.30
2023-02-06T00:38:19.286Z,13.63
2023-02-06T00:40:47.634Z,13.77
2023-02-06T00:43:16.704Z,13.52
2023-02-06T00:45:44.458Z,14.48
2023-02-06T00:48:16.385Z,13.50
2023-02-06T00:50:44.123Z,14.68
2023-02-06T00:53:12.112Z,12.90
2023-02-06T00:55:39.847Z,14.18
2023-02-06T00:58:07.701Z,13.35
2023-02-06T01:00:36.950Z,15.02
2023-02-06T01:03:04.855Z,14.65
2023-02-06T01:05:34.574Z,14.32
2023-02-06T01:08:04.432Z,14.57
2023-02-06T01:10:32.611Z,14.73
2023-02-06T01:13:00.332Z,14.05
2023-02-06T01:15:28.128Z,14.45
2023-02-06T01:17:57.190Z,14.05
2023-02-06T01:20:25.103Z,13.73
2023-02-06T01:22:52.851Z,14.07
2023-02-06T01:25:20.997Z,15.38
2023-02-06T01:27:48.716Z,15.00
2023-02-06T01:30:16.515Z,16.30
2023-02-06T01:32:44.460Z,16.15
2023-02-06T01:35:14.304Z,15.68
2023-02-06T01:37:42.647Z,15.23
2023-02-06T01:40:17.365Z,14.90
2023-02-06T01:42:45.486Z,14.63
2023-02-06T01:45:36.738Z,16.27
2023-02-06T01:48:09.488Z,16.00
2023-02-06T01:50:42.795Z,16.80
2023-02-06T01:53:11.026Z,15.65
2023-02-06T01:55:40.701Z,15.80
2023-02-06T01:58:09.938Z,15.57
2023-02-06T02:00:38.038Z,16.40
2023-02-06T02:03:06.156Z,15.65
2023-02-06T02:05:35.558Z,16.13
2023-02-06T02:08:09.291Z,15.52
2023-02-06T02:10:37.360Z,16.88
2023-02-06T02:13:05.100Z,16.20
2023-02-06T02:15:42.485Z,16.23
2023-02-06T02:18:25.061Z,15.63
2023-02-06T02:21:27.645Z,15.52
2023-02-06T02:24:05.913Z,15.88
2023-02-06T02:27:06.926Z,16.20
2023-02-06T02:30:03.104Z,16.25
2023-02-06T02:32:54.809Z,15.40
2023-02-06T02:35:35.153Z,16.70
2023-02-06T02:38:13.847Z,15.55
2023-02-06T02:40:51.195Z,16.17
2023-02-06T02:43:31.096Z,16.00
2023-02-06T02:46:03.652Z,15.38
2023-02-06T02:48:36.812Z,15.73
2023-02-06T02:51:07.162Z,16.58
2023-02-06T02:53:39.270Z,15.65
2023-02-06T02:56:15.901Z,15.32
2023-02-06T02:58:45.523Z,16.90
2023-02-06T03:01:18.053Z,15.18
2023-02-06T03:03:48.108Z,15.55
2023-02-06T03:06:36.172Z,15.25
2023-02-06T03:09:09.011Z,15.52
2023-02-06T03:11:45.975Z,15.63
2023-02-06T03:14:22.394Z,16.85
2023-02-06T03:16:55.581Z,16.08
2023-02-06T03:19:28.702Z,15.85
2023-02-06T03:21:57.963Z,16.20
2023-02-06T03:24:30.372Z,15.80
2023-02-06T03:27:01.083Z,16.13
2023-02-06T03:29:32.300Z,17.42
2023-02-06T03:32:03.124Z,17.50
2023-02-06T03:34:38.961Z,16.52
2023-02-06T03:37:08.349Z,17.45
2023-02-06T03:39:36.905Z,17.27
2023-02-06T03:42:09.829Z,16.92
2023-02-06T03:44:45.401Z,16.70
2023-02-06T03:47:15.186Z,17.80
2023-02-06T03:49:44.710Z,17.98
2023-02-06T03:52:17.428Z,17.45
2023-02-06T03:54:50.298Z,17.95
2023-02-06T03:57:20.148Z,17.00
2023-02-06T03:59:48.280Z,17.20
2023-02-06T04:02:18.812Z,18.02
2023-02-06T04:04:47.369Z,16.58
2023-02-06T04:07:21.203Z,17.40
2023-02-06T04:09:49.310Z,17.52
2023-02-06T04:12:18.350Z,17.60
2023-02-06T04:14:49.779Z,18.00
2023-02-06T04:17:36.147Z,17.55
2023-02-06T04:20:06.422Z,16.73
2023-02-06T04:22:35.785Z,17.33
2023-02-06T04:25:03.657Z,17.70
2023-02-06T04:27:31.408Z,18.02
2023-02-06T04:29:59.214Z,16.77
2023-02-06T04:32:31.210Z,17.27
2023-02-06T04:34:58.946Z,17.95
2023-02-06T04:37:26.664Z,17.83
2023-02-06T04:39:58.792Z,18.88
2023-02-06T04:42:29.710Z,17.63
2023-02-06T04:44:57.459Z,17.83
2023-02-06T04:47:29.040Z,18.25
2023-02-06T04:49:56.760Z,19.20
2023-02-06T04:52:24.494Z,18.35
2023-02-06T04:54:52.194Z,19.55
2023-02-06T04:57:21.442Z,19.10
2023-02-06T04:59:49.180Z,20.10
2023-02-06T05:02:16.953Z,18.25
2023-02-06T05:04:44.665Z,18.38
2023-02-06T05:07:12.371Z,20.13
2023-02-06T05:09:40.065Z,20.20
2023-02-06T05:12:08.030Z,19.08
2023-02-06T05:14:37.146Z,19.52
2023-02-06T05:17:06.804Z,20.48
2023-02-06T05:19:34.519Z,19.67
2023-02-06T05:22:02.756Z,19.67
2023-02-06T05:24:32.967Z,20.58
2023-02-06T05:27:00.660Z,21.08
2023-02-06T05:29:31.221Z,19.80
2023-02-06T05:32:00.316Z,20.20
2023-02-06T05:34:30.991Z,21.50
2023-02-06T05:36:58.733Z,21.27
2023-02-06T05:39:27.228Z,22.02
2023-02-06T05:41:56.595Z,20.90
2023-02-06T05:44:26.398Z,21.85
2023-02-06T05:46:57.279Z,21.42
2023-02-06T05:49:26.358Z,20.77
2023-02-06T05:51:54.072Z,20.38
2023-02-06T05:54:21.814Z,20.60
2023-02-06T05:56:49.593Z,21.60
2023-02-06T05:59:17.336Z,21.73
2023-02-06T06:01:45.051Z,22.45
2023-02-06T06:04:12.878Z,21.60
2023-02-06T06:06:41.991Z,21.02
2023-02-06T06:09:09.742Z,21.33
2023-02-06T06:11:37.555Z,22.27
2023-02-06T06:14:05.731Z,21.15
2023-02-06T06:16:33.567Z,21.15
2023-02-06T06:19:01.799Z,21.48
2023-02-06T06:21:29.502Z,21.30
2023-02-06T06:23:58.569Z,22.25
2023-02-06T06:26:26.322Z,22.33
2023-02-06T06:28:54.673Z,22.40
2023-02-06T06:31:22.529Z,21.90
2023-02-06T06:33:50.332Z,21.65
2023-02-06T06:36:18.139Z,23.48
2023-02-06T06:38:45.861Z,22.90
2023-02-06T06:41:15.065Z,22.70
2023-02-06T06:43:43.265Z,22.13
2023-02-06T06:46:11.089Z,23.05
2023-02-06T06:48:40.194Z,21.50
2023-02-06T06:51:08.366Z,20.48
2023-02-06T06:53:39.820Z,21.40
2023-02-06T06:56:09.450Z,21.38
2023-02-06T06:58:38.556Z,21.88
2023-02-06T07:01:06.693Z,21.15
2023-02-06T07:03:34.418Z,22.67
2023-02-06T07:06:02.192Z,24.23
2023-02-06T07:08:30.104Z,22.83
2023-02-06T07:10:58.325Z,26.42
2023-02-06T07:13:26.124Z,27.80
2023-02-06T07:15:55.200Z,35.60
2023-02-06T07:18:23.651Z,40.63
2023-02-06T07:20:51.487Z,35.25
2023-02-06T07:23:19.259Z,30.80
2023-02-06T07:25:46.963Z,27.42
2023-02-06T07:28:14.971Z,26.95
2023-02-06T07:30:43.252Z,24.60
2023-02-06T07:33:12.311Z,25.75
2023-02-06T07:35:45.668Z,31.88
2023-02-06T07:38:16.497Z,30.38
2023-02-06T07:40:45.410Z,26.02
2023-02-06T07:43:14.047Z,23.80
2023-02-06T07:45:42.051Z,29.00
2023-02-06T07:48:09.846Z,28.20
2023-02-06T07:50:39.215Z,30.40
2023-02-06T07:53:07.834Z,31.55
2023-02-06T07:55:37.890Z,30.50
2023-02-06T07:58:05.855Z,24.83
2023-02-06T08:00:33.551Z,26.27
2023-02-06T08:03:01.285Z,25.52
2023-02-06T08:05:29.077Z,24.77
2023-02-06T08:07:58.580Z,26.15
2023-02-06T08:10:26.693Z,24.92
2023-02-06T08:12:54.546Z,24.90
2023-02-06T08:15:22.348Z,25.92
2023-02-06T08:17:52.024Z,24.33
2023-02-06T08:20:20.204Z,23.48
2023-02-06T08:22:47.973Z,21.92
2023-02-06T08:25:17.214Z,21.05
2023-02-06T08:27:44.950Z,20.13
2023-02-06T08:30:14.412Z,19.23
2023-02-06T08:32:42.361Z,18.65
2023-02-06T08:35:10.052Z,16.10
2023-02-06T08:37:37.806Z,16.20
2023-02-06T08:40:09.323Z,15.60
2023-02-06T08:42:38.415Z,15.50
2023-02-06T08:45:07.380Z,17.05
2023-02-06T08:47:35.106Z,13.90
2023-02-06T08:50:03.670Z,12.68
2023-02-06T08:52:31.586Z,11.95
2023-02-06T08:54:59.302Z,12.70
2023-02-06T08:57:26.994Z,11.38
2023-02-06T08:59:56.085Z,11.95
2023-02-06T09:02:24.020Z,13.23
2023-02-06T09:04:52.036Z,11.15
2023-02-06T09:07:19.852Z,11.65
2023-02-06T09:09:47.565Z,10.52
2023-02-06T09:12:16.446Z,10.45
2023-02-06T09:14:44.425Z,10.30
2023-02-06T09:17:13.539Z,9.52
2023-02-06T09:19:41.513Z,11.15
2023-02-06T09:22:09.549Z,10.55
2023-02-06T09:24:38.843Z,10.73
2023-02-06T09:27:06.614Z,10.63
2023-02-06T09:29:34.582Z,10.40
2023-02-06T09:32:02.764Z,10.50
2023-02-06T09:34:31.855Z,10.52
2023-02-06T09:36:59.842Z,11.30
2023-02-06T09:39:27.675Z,10.57
2023-02-06T09:41:57.934Z,10.95
2023-02-06T09:44:31.631Z,10.48
2023-02-06T09:47:05.013Z,9.98
2023-02-06T09:49:41.672Z,9.55
2023-02-06T09:52:26.473Z,10.30
2023-02-06T09:55:02.024Z,9.82
2023-02-06T10:00:12.482Z,9.30
2023-02-06T10:03:01.969Z,8.45
2023-02-06T10:05:40.897Z,8.82
2023-02-06T10:08:17.956Z,9.88
2023-02-06T10:10:50.141Z,9.30
2023-02-06T10:13:25.386Z,9.07
2023-02-06T10:15:59.067Z,8.68
2023-02-06T10:18:35.133Z,9.38
2023-02-06T10:21:11.261Z,9.27
2023-02-06T10:23:45.585Z,9.25
2023-02-06T10:26:18.243Z,9.13
2023-02-06T10:28:49.596Z,8.23
2023-02-06T10:31:31.383Z,8.70
2023-02-06T10:34:17.034Z,9.68
2023-02-06T10:36:59.889Z,9.88
2023-02-06T10:39:52.178Z,9.60
2023-02-06T10:42:26.946Z,9.13
2023-02-06T10:45:18.434Z,9.43
2023-02-06T10:47:54.273Z,10.50
2023-02-06T10:50:29.541Z,9.63
2023-02-06T10:53:01.271Z,8.95
2023-02-06T10:55:33.829Z,9.35
2023-02-06T10:58:11.494Z,8.57
2023-02-06T11:00:41.111Z,9.20
2023-02-06T11:03:15.307Z,10.13
2023-02-06T11:05:43.378Z,9.88
2023-02-06T11:08:19.993Z,9.57
2023-02-06T11:10:47.924Z,9.60
2023-02-06T11:13:22.072Z,10.10
2023-02-06T11:15:57.400Z,10.52
2023-02-06T11:18:28.961Z,10.23
2023-02-06T11:20:57.051Z,10.35
2023-02-06T11:23:28.431Z,10.23
2023-02-06T11:26:05.414Z,8.57
2023-02-06T11:28:35.150Z,8.70
2023-02-06T11:31:04.710Z,9.52
2023-02-06T11:33:39.286Z,9.07
2023-02-06T11:36:18.173Z,9.27
2023-02-06T11:38:55.800Z,8.63
2023-02-06T11:41:23.508Z,8.88
2023-02-06T11:43:53.821Z,9.30
2023-02-06T11:46:25.496Z,9.07
2023-02-06T11:49:05.151Z,9.02
2023-02-06T11:51:52.431Z,9.00
2023-02-06T11:54:24.407Z,9.48
2023-02-06T11:57:09.423Z,8.88
2023-02-06T11:59:50.015Z,9.20
2023-02-06T12:02:28.228Z,8.55
2023-02-06T12:05:03.101Z,8.15
2023-02-06T12:07:35.330Z,8.05
2023-02-06T12:10:11.380Z,8.48
2023-02-06T12:12:43.754Z,8.45
2023-02-06T12:15:39.865Z,8.07
2023-02-06T12:18:06.690Z,8.55
2023-02-06T12:20:37.782Z,8.43
2023-02-06T12:23:13.141Z,8.32
2023-02-06T12:25:47.076Z,8.05
2023-02-06T12:28:20.840Z,8.35
2023-02-06T12:30:52.354Z,7.82
2023-02-06T12:33:23.360Z,7.40
2023-02-06T12:35:57.043Z,7.75
2023-02-06T12:38:43.723Z,7.75
2023-02-06T12:41:36.808Z,7.55
2023-02-06T12:44:13.127Z,8.45
2023-02-06T12:46:42.486Z,8.50
2023-02-06T12:49:16.997Z,7.85
2023-02-06T12:51:54.648Z,9.23
2023-02-06T12:54:26.027Z,8.75
2023-02-06T12:57:00.162Z,8.65
2023-02-06T12:59:59.639Z,8.25
2023-02-06T13:02:53.713Z,8.63
2023-02-06T13:05:26.109Z,9.18
2023-02-06T13:07:57.170Z,9.30
2023-02-06T13:10:27.384Z,9.13
2023-02-06T13:13:00.137Z,8.80
2023-02-06T13:15:30.076Z,9.05
2023-02-06T13:18:00.961Z,9.40
2023-02-06T13:20:29.041Z,9.57
2023-02-06T13:23:25.692Z,9.23
2023-02-06T13:25:56.418Z,10.15
2023-02-06T13:29:04.080Z,9.60
2023-02-06T13:31:35.674Z,9.27
2023-02-06T13:34:19.023Z,9.10
2023-02-06T13:36:53.443Z,10.15
2023-02-06T13:39:31.181Z,10.50
2023-02-06T13:42:04.799Z,11.18
2023-02-06T13:44:35.023Z,10.10
2023-02-06T13:47:30.108Z,10.05
2023-02-06T13:50:24.792Z,9.73
2023-02-06T13:53:07.939Z,10.35
2023-02-06T13:55:48.964Z,10.45
2023-02-06T13:58:44.997Z,9.60
2023-02-06T14:01:16.816Z,10.50
2023-02-06T14:03:49.457Z,10.52
2023-02-06T14:06:39.708Z,10.35
2023-02-06T14:09:33.837Z,10.65
2023-02-06T14:12:28.542Z,9.85
2023-02-06T14:15:08.141Z,9.43
2023-02-06T14:17:47.664Z,10.90
2023-02-06T14:20:30.720Z,10.50
2023-02-06T14:23:08.029Z,10.82
2023-02-06T14:25:57.464Z,9.70
2023-02-06T14:28:32.028Z,10.52
2023-02-06T14:31:12.652Z,10.07
2023-02-06T14:33:59.528Z,10.93
2023-02-06T14:36:42.748Z,9.43
2023-02-06T14:39:37.337Z,8.38
2023-02-06T14:42:13.381Z,8.98
2023-02-06T14:44:50.474Z,8.80
2023-02-06T14:47:21.525Z,8.43
2023-02-06T14:49:50.270Z,8.93
2023-02-06T14:52:22.979Z,8.70
2023-02-06T14:54:51.171Z,9.75
2023-02-06T14:57:23.248Z,9.55
2023-02-06T14:59:53.605Z,10.23
2023-02-06T15:02:27.738Z,10.15
2023-02-06T15:04:56.299Z,9.18
2023-02-06T15:07:30.251Z,9.40
2023-02-06T15:10:03.083Z,9.25
2023-02-06T15:12:35.378Z,9.95
2023-02-06T15:15:15.325Z,9.15
2023-02-06T15:17:45.063Z,9.73
2023-02-06T15:20:25.051Z,9.68
2023-02-06T15:22:58.175Z,9.20
2023-02-06T15:25:40.830Z,9.52
2023-02-06T15:28:14.087Z,9.60
2023-02-06T15:30:41.912Z,8.82
2023-02-06T15:33:11.914Z,8.90
2023-02-06T15:35:42.424Z,9.52
2023-02-06T15:38:15.718Z,8.45
2023-02-06T15:40:46.628Z,9.15
2023-02-06T15:43:17.295Z,8.43
2023-02-06T15:45:45.980Z,9.35
2023-02-06T15:48:18.792Z,8.98
2023-02-06T15:50:57.077Z,9.90
2023-02-06T15:53:33.768Z,9.07
2023-02-06T15:56:03.344Z,11.77
2023-02-06T15:58:31.628Z,9.75
2023-02-06T16:01:00.276Z,18.83
2023-02-06T16:03:30.807Z,10.23
2023-02-06T16:05:58.787Z,10.60
2023-02-06T16:08:33.121Z,9.40
2023-02-06T16:11:26.003Z,9.88
2023-02-06T16:13:54.334Z,10.45
2023-02-06T16:16:23.937Z,10.73
2023-02-06T16:18:53.711Z,9.52
2023-02-06T16:21:27.961Z,9.63
2023-02-06T16:24:16.333Z,9.98
2023-02-06T16:26:48.087Z,9.70
2023-02-06T16:29:24.078Z,9.90
2023-02-06T16:31:58.996Z,9.70
2023-02-06T16:34:40.615Z,13.98
2023-02-06T16:37:13.917Z,11.48
2023-02-06T16:39:43.287Z,12.82
2023-02-06T16:42:17.512Z,11.05
2023-02-06T16:44:49.442Z,9.88
2023-02-06T16:47:19.039Z,11.25
2023-02-06T16:49:49.609Z,10.20
2023-02-06T16:52:20.377Z,10.50
2023-02-06T16:54:48.862Z,9.77
2023-02-06T16:57:27.329Z,10.50
2023-02-06T16:59:55.078Z,10.73
2023-02-06T17:02:22.940Z,11.55
2023-02-06T17:04:51.067Z,10.50
2023-02-06T17:07:22.473Z,10.07
2023-02-06T17:09:51.391Z,10.52
2023-02-06T17:12:22.949Z,10.35
2023-02-06T17:14:50.826Z,9.68
2023-02-06T17:17:21.602Z,9.73
2023-02-06T17:19:50.765Z,10.02
2023-02-06T17:22:18.871Z,10.63
2023-02-06T17:24:46.796Z,10.32
2023-02-06T17:27:17.697Z,11.20
2023-02-06T17:29:47.756Z,10.88
2023-02-06T17:32:16.357Z,11.40
2023-02-06T17:34:46.594Z,11.23
2023-02-06T17:37:20.701Z,10.80
2023-02-06T17:39:50.267Z,11.25
2023-02-06T17:42:18.032Z,11.15
2023-02-06T17:44:47.117Z,9.80
2023-02-06T17:47:14.950Z,9.00
2023-02-06T17:49:42.733Z,9.32
2023-02-06T17:52:10.489Z,9.27
2023-02-06T17:54:38.264Z,9.52
2023-02-06T17:57:05.993Z,10.55
2023-02-06T17:59:33.814Z,11.15
2023-02-06T18:02:02.930Z,11.02
2023-02-06T18:04:30.690Z,10.70
2023-02-06T18:06:58.406Z,12.35
2023-02-06T18:09:26.157Z,11.15
2023-02-06T18:11:53.930Z,11.60
2023-02-06T18:14:21.924Z,11.10
2023-02-06T18:16:50.221Z,10.85
2023-02-06T18:19:25.258Z,11.85
2023-02-06T18:21:52.985Z,12.57
2023-02-06T18:24:20.743Z,12.15
2023-02-06T18:26:51.470Z,11.43
2023-02-06T18:29:19.220Z,12.02
2023-02-06T18:31:47.069Z,12.50
2023-02-06T18:34:20.480Z,12.32
2023-02-06T18:36:51.887Z,11.98
2023-02-06T18:39:19.701Z,11.50
2023-02-06T18:42:04.915Z,11.82
2023-02-06T18:44:33.184Z,12.02
2023-02-06T18:47:01.045Z,13.00
2023-02-06T18:49:28.807Z,12.68
2023-02-06T18:51:58.002Z,12.02
2023-02-06T18:54:25.845Z,12.55
2023-02-06T18:56:56.150Z,12.65
2023-02-06T18:59:23.931Z,13.15
2023-02-06T19:01:54.906Z,13.20
2023-02-06T19:04:23.034Z,11.70
2023-02-06T19:06:51.408Z,12.77
2023-02-06T19:09:20.974Z,12.65
2023-02-06T19:11:49.470Z,13.32
2023-02-06T19:14:22.480Z,12.38
2023-02-06T19:16:51.250Z,11.48
2023-02-06T19:19:19.157Z,12.20
2023-02-06T19:21:47.163Z,12.00
2023-02-06T19:24:18.423Z,11.90
2023-02-06T19:26:47.919Z,12.13
2023-02-06T19:29:34.366Z,12.38
2023-02-06T19:32:05.594Z,12.43
2023-02-06T19:34:36.006Z,13.90
2023-02-06T19:37:04.514Z,13.43
2023-02-06T19:39:34.130Z,12.95
2023-02-06T19:42:07.532Z,14.43
2023-02-06T19:44:35.340Z,14.15
2023-02-06T19:47:03.774Z,13.32
2023-02-06T19:49:31.878Z,14.10
2023-02-06T19:52:00.153Z,14.98
2023-02-06T19:54:28.297Z,13.50
2023-02-06T19:56:56.168Z,14.20
2023-02-06T19:59:27.926Z,14.63
2023-02-06T20:01:57.456Z,15.07
2023-02-06T20:04:27.566Z,14.90
2023-02-06T20:06:55.900Z,14.65
2023-02-06T20:09:24.263Z,15.73
2023-02-06T20:11:52.718Z,15.27
2023-02-06T20:14:22.932Z,13.65
2023-02-06T20:16:53.524Z,13.90
2023-02-06T20:19:25.198Z,13.80
2023-02-06T20:21:55.846Z,15.10
2023-02-06T20:24:26.558Z,14.90
2023-02-06T20:26:59.477Z,14.45
2023-02-06T20:29:31.399Z,14.80
2023-02-06T20:32:01.976Z,15.50
2023-02-06T20:34:29.985Z,13.98
2023-02-06T20:37:00.596Z,15.38
2023-02-06T20:39:31.068Z,15.90
2023-02-06T20:42:00.172Z,16.25
2023-02-06T20:44:28.761Z,17.20
2023-02-06T20:46:57.092Z,17.00
2023-02-06T20:49:28.886Z,17.20
2023-02-06T20:51:57.958Z,15.90
2023-02-06T20:54:27.157Z,17.65
2023-02-06T20:56:56.354Z,16.70
2023-02-06T20:59:24.404Z,17.85
2023-02-06T21:01:52.593Z,17.08
2023-02-06T21:04:21.894Z,16.95
2023-02-06T21:06:52.056Z,15.55
2023-02-06T21:09:20.688Z,16.55
2023-02-06T21:11:50.570Z,16.90
2023-02-06T21:14:21.125Z,17.35
2023-02-06T21:16:59.886Z,17.67
2023-02-06T21:19:29.262Z,19.13
2023-02-06T21:21:58.549Z,19.73
2023-02-06T21:24:26.389Z,18.52
2023-02-06T21:26:54.448Z,18.13
2023-02-06T21:29:24.849Z,18.40
2023-02-06T21:32:07.249Z,18.27
2023-02-06T21:34:43.921Z,18.17
2023-02-06T21:37:14.541Z,18.75
2023-02-06T21:39:43.330Z,18.83
2023-02-06T21:42:12.399Z,17.00
2023-02-06T21:44:40.421Z,19.80
2023-02-06T21:47:10.062Z,19.35
2023-02-06T21:49:38.514Z,18.45
2023-02-06T21:52:06.301Z,19.33
2023-02-06T21:54:35.630Z,20.23
2023-02-06T21:57:03.724Z,20.15
2023-02-06T21:59:33.901Z,19.60
2023-02-06T22:02:02.357Z,19.83
2023-02-06T22:04:30.275Z,19.80
2023-02-06T22:06:58.052Z,21.17
2023-02-06T22:09:25.781Z,18.80
2023-02-06T22:11:55.725Z,18.67
2023-02-06T22:14:23.495Z,20.05
2023-02-06T22:16:51.502Z,19.20
2023-02-06T22:19:19.367Z,19.63
2023-02-06T22:21:47.368Z,19.08
2023-02-06T22:24:15.337Z,18.00
2023-02-06T22:26:43.618Z,19.30
2023-02-06T22:29:15.475Z,18.00
2023-02-06T22:31:44.880Z,18.35
2023-02-06T22:34:16.702Z,18.65
2023-02-06T22:36:45.624Z,20.20
2023-02-06T22:39:14.407Z,19.85
2023-02-06T22:41:46.730Z,19.45
2023-02-06T22:44:17.231Z,19.05
2023-02-06T22:46:46.633Z,19.75
2023-02-06T22:49:16.558Z,19.52
2023-02-06T22:51:44.496Z,20.00
2023-02-06T22:54:13.531Z,19.67
2023-02-06T23:01:23.779Z,20.02
2023-02-06T23:03:52.857Z,21.60
2023-02-06T23:06:21.097Z,23.90
2023-02-06T23:08:48.934Z,22.92
2023-02-06T23:11:17.413Z,23.42
2023-02-06T23:13:45.155Z,22.90
2023-02-06T23:16:13.396Z,22.38
2023-02-06T23:18:42.573Z,21.33
2023-02-06T23:21:12.415Z,21.77
2023-02-06T23:23:41.347Z,20.98
2023-02-06T23:26:10.448Z,23.85
2023-02-06T23:28:38.715Z,21.83
2023-02-06T23:31:07.173Z,24.40
2023-02-06T23:33:35.817Z,26.10
2023-02-06T23:36:06.989Z,24.50
2023-02-06T23:38:34.907Z,24.13
2023-02-06T23:41:07.918Z,25.15
2023-02-06T23:43:35.743Z,24.60
2023-02-06T23:46:03.805Z,23.85
2023-02-06T23:48:31.606Z,23.27
2023-02-06T23:50:59.423Z,25.58
2023-02-06T23:53:28.932Z,26.15
2023-02-06T23:55:58.851Z,26.33
2023-02-06T23:58:26.790Z,26.75
